createdAt,value
2019-04-29T00:00:57.147Z,12.23
2019-04-29T00:02:04.486Z,13.03
2019-04-29T00:03:11.448Z,11.53
2019-04-29T00:04:18.347Z,17.30
2019-04-29T00:05:25.417Z,13.30
2019-04-29T00:06:32.709Z,14.63
2019-04-29T00:07:39.805Z,12.40
2019-04-29T00:08:47.058Z,20.03
2019-04-29T00:09:54.145Z,21.10
2019-04-29T00:11:00.897Z,14.53
2019-04-29T00:12:08.085Z,18.53
2019-04-29T00:13:15.550Z,19.53
2019-04-29T00:14:22.795Z,15.93
2019-04-29T00:15:44.082Z,18.57
2019-04-29T00:17:06.962Z,12.70
2019-04-29T00:18:25.059Z,11.20
2019-04-29T00:19:54.000Z,13.10
2019-04-29T00:21:01.111Z,16.30
2019-04-29T00:22:08.212Z,14.00
2019-04-29T00:23:15.170Z,15.43
2019-04-29T00:24:21.913Z,13.90
2019-04-29T00:25:29.124Z,17.80
2019-04-29T00:26:36.317Z,15.77
2019-04-29T00:27:43.589Z,12.67
2019-04-29T00:28:50.685Z,12.97
2019-04-29T00:29:57.439Z,13.17
2019-04-29T00:31:04.628Z,15.07
2019-04-29T00:32:11.898Z,13.17
2019-04-29T00:33:18.999Z,17.30
2019-04-29T00:34:25.766Z,13.63
2019-04-29T00:35:32.846Z,20.30
2019-04-29T00:36:47.175Z,16.77
2019-04-29T00:38:11.988Z,17.73
2019-04-29T00:39:40.757Z,21.67
2019-04-29T00:41:09.095Z,14.97
2019-04-29T00:42:30.097Z,15.50
2019-04-29T00:43:42.037Z,14.07
2019-04-29T00:44:48.810Z,13.67
2019-04-29T00:45:56.006Z,15.70
2019-04-29T00:47:02.746Z,15.70
2019-04-29T00:48:09.846Z,15.80
2019-04-29T00:49:16.697Z,16.10
2019-04-29T00:50:23.437Z,16.13
2019-04-29T00:51:30.187Z,15.87
2019-04-29T00:52:37.342Z,15.40
2019-04-29T00:53:44.952Z,15.50
2019-04-29T00:54:57.194Z,13.90
2019-04-29T00:56:04.133Z,18.37
2019-04-29T00:57:10.949Z,15.27
2019-04-29T00:58:17.687Z,14.40
2019-04-29T00:59:24.833Z,17.50
2019-04-29T01:00:38.872Z,15.37
2019-04-29T01:01:46.057Z,12.23
2019-04-29T01:02:52.787Z,11.33
2019-04-29T01:03:59.922Z,12.67
2019-04-29T01:05:07.637Z,14.53
2019-04-29T01:06:14.396Z,16.30
2019-04-29T01:07:21.146Z,15.50
2019-04-29T01:08:28.624Z,13.20
2019-04-29T01:09:35.925Z,11.87
2019-04-29T01:10:43.431Z,12.23
2019-04-29T01:11:50.575Z,15.20
2019-04-29T01:12:57.337Z,13.20
2019-04-29T01:14:04.086Z,13.07
2019-04-29T01:15:11.575Z,11.47
2019-04-29T01:16:18.322Z,10.37
2019-04-29T01:17:26.418Z,10.70
2019-04-29T01:18:33.560Z,8.80
2019-04-29T01:19:40.742Z,8.23
2019-04-29T01:20:47.461Z,9.30
2019-04-29T01:21:54.582Z,8.90
2019-04-29T01:23:01.411Z,11.93
2019-04-29T01:24:08.202Z,12.90
2019-04-29T01:25:15.494Z,14.03
2019-04-29T01:26:44.200Z,12.43
2019-04-29T01:27:57.978Z,11.90
2019-04-29T01:29:05.637Z,11.77
2019-04-29T01:31:22.480Z,12.67
2019-04-29T01:32:29.239Z,12.40
2019-04-29T01:33:36.002Z,12.00
2019-04-29T01:34:53.817Z,17.20
2019-04-29T01:36:29.349Z,17.67
2019-04-29T01:37:41.779Z,10.90
2019-04-29T01:38:49.636Z,7.30
2019-04-29T01:40:06.065Z,9.53
2019-04-29T01:41:16.674Z,12.40
2019-04-29T01:42:32.823Z,12.17
2019-04-29T01:43:57.822Z,13.03
2019-04-29T01:45:05.318Z,16.32
2019-04-29T01:46:12.393Z,13.30
2019-04-29T01:47:19.237Z,12.10
2019-04-29T01:48:26.199Z,15.70
2019-04-29T01:49:33.014Z,15.83
2019-04-29T01:50:40.492Z,13.10
2019-04-29T01:51:47.318Z,11.20
2019-04-29T01:52:54.106Z,9.43
2019-04-29T01:54:01.214Z,14.07
2019-04-29T01:55:08.499Z,12.23
2019-04-29T01:56:15.603Z,13.80
2019-04-29T01:57:22.657Z,20.47
2019-04-29T01:58:29.424Z,17.00
2019-04-29T01:59:36.258Z,22.27
2019-04-29T02:00:43.485Z,25.30
2019-04-29T02:01:50.329Z,20.07
2019-04-29T02:02:57.151Z,20.30
2019-04-29T02:04:04.699Z,16.57
2019-04-29T02:05:11.786Z,17.30
2019-04-29T02:06:18.621Z,19.40
2019-04-29T02:07:26.049Z,16.07
2019-04-29T02:08:32.821Z,16.90
2019-04-29T02:09:45.938Z,14.93
2019-04-29T02:10:52.697Z,15.20
2019-04-29T02:12:01.214Z,19.00
2019-04-29T02:13:08.303Z,18.97
2019-04-29T02:14:15.058Z,15.97
2019-04-29T02:15:21.820Z,14.13
2019-04-29T02:16:28.921Z,17.23
2019-04-29T02:17:36.302Z,15.73
2019-04-29T02:18:43.973Z,16.47
2019-04-29T02:19:51.073Z,16.70
2019-04-29T02:20:57.840Z,15.23
2019-04-29T02:22:32.721Z,14.60
2019-04-29T02:23:47.764Z,18.40
2019-04-29T02:24:57.996Z,15.00
2019-04-29T02:26:05.322Z,17.37
2019-04-29T02:27:12.551Z,19.63
2019-04-29T02:28:19.304Z,17.07
2019-04-29T02:29:26.410Z,19.80
2019-04-29T02:30:52.221Z,19.33
2019-04-29T02:31:58.979Z,17.03
2019-04-29T02:33:05.757Z,16.70
2019-04-29T02:34:12.597Z,17.77
2019-04-29T02:35:19.353Z,33.43
2019-04-29T02:36:29.910Z,21.33
2019-04-29T02:37:37.933Z,20.27
2019-04-29T02:38:51.036Z,19.40
2019-04-29T02:40:04.674Z,17.40
2019-04-29T02:41:30.825Z,18.57
2019-04-29T02:42:52.729Z,22.03
2019-04-29T02:44:01.104Z,25.67
2019-04-29T02:45:12.515Z,24.70
2019-04-29T02:46:19.621Z,23.80
2019-04-29T02:47:26.397Z,29.33
2019-04-29T02:48:34.669Z,32.23
2019-04-29T02:49:42.035Z,22.30
2019-04-29T02:50:49.395Z,23.40
2019-04-29T02:51:56.511Z,22.10
2019-04-29T02:53:03.265Z,19.60
2019-04-29T02:54:10.439Z,18.57
2019-04-29T02:55:22.162Z,18.70
2019-04-29T02:56:29.293Z,24.37
2019-04-29T02:57:41.331Z,33.73
2019-04-29T02:58:58.194Z,24.63
2019-04-29T03:00:32.678Z,24.47
2019-04-29T03:01:52.995Z,30.93
2019-04-29T03:03:13.075Z,24.03
2019-04-29T03:04:22.742Z,29.17
2019-04-29T03:05:33.355Z,33.67
2019-04-29T03:06:40.221Z,18.00
2019-04-29T03:07:46.971Z,19.43
2019-04-29T03:08:53.708Z,20.03
2019-04-29T03:10:00.536Z,21.23
2019-04-29T03:11:08.057Z,17.40
2019-04-29T03:12:15.065Z,21.97
2019-04-29T03:13:22.544Z,15.87
2019-04-29T03:14:29.589Z,20.90
2019-04-29T03:15:38.328Z,14.73
2019-04-29T03:16:45.517Z,22.70
2019-04-29T03:17:59.998Z,15.30
2019-04-29T03:19:11.595Z,22.60
2019-04-29T03:20:24.204Z,23.63
2019-04-29T03:21:35.128Z,16.20
2019-04-29T03:22:43.016Z,15.20
2019-04-29T03:23:50.081Z,14.53
2019-04-29T03:24:56.995Z,16.27
2019-04-29T03:26:03.939Z,13.37
2019-04-29T03:27:11.061Z,14.27
2019-04-29T03:28:17.969Z,15.40
2019-04-29T03:29:24.846Z,16.40
2019-04-29T03:30:31.755Z,18.17
2019-04-29T03:31:39.957Z,15.53
2019-04-29T03:32:47.229Z,11.73
2019-04-29T03:33:54.621Z,13.60
2019-04-29T03:35:01.716Z,23.67
2019-04-29T03:36:09.085Z,12.80
2019-04-29T03:37:15.826Z,12.73
2019-04-29T03:38:22.589Z,13.47
2019-04-29T03:39:29.805Z,27.60
2019-04-29T03:40:36.562Z,27.97
2019-04-29T03:41:43.317Z,19.80
2019-04-29T03:42:50.087Z,14.93
2019-04-29T03:43:57.615Z,15.20
2019-04-29T03:45:04.806Z,17.93
2019-04-29T03:46:11.554Z,15.75
2019-04-29T03:47:19.248Z,16.13
2019-04-29T03:48:26.446Z,21.70
2019-04-29T03:49:33.812Z,22.40
2019-04-29T03:50:41.013Z,19.30
2019-04-29T03:51:47.771Z,15.33
2019-04-29T03:52:54.848Z,23.32
2019-04-29T03:54:01.603Z,15.23
2019-04-29T03:55:08.467Z,16.90
2019-04-29T03:56:15.244Z,22.47
2019-04-29T03:57:22.107Z,21.23
2019-04-29T03:58:28.868Z,21.90
2019-04-29T03:59:35.667Z,20.50
2019-04-29T04:00:44.695Z,16.00
2019-04-29T04:02:10.994Z,17.80
2019-04-29T04:03:36.946Z,28.33
2019-04-29T04:05:01.319Z,26.53
2019-04-29T04:06:26.883Z,23.13
2019-04-29T04:07:43.627Z,24.33
2019-04-29T04:09:05.519Z,22.37
2019-04-29T04:10:03.769Z,19.43
2019-04-29T04:11:12.266Z,17.23
2019-04-29T04:12:19.047Z,16.57
2019-04-29T04:13:26.170Z,12.77
2019-04-29T04:14:33.255Z,12.90
2019-04-29T04:15:40.202Z,12.83
2019-04-29T04:17:15.009Z,17.40
2019-04-29T04:18:26.664Z,16.63
2019-04-29T04:19:33.970Z,25.83
2019-04-29T04:20:40.792Z,15.47
2019-04-29T04:21:47.928Z,13.60
2019-04-29T04:22:54.701Z,13.27
2019-04-29T04:24:01.526Z,22.87
2019-04-29T04:25:08.605Z,14.97
2019-04-29T04:26:15.720Z,14.10
2019-04-29T04:27:22.633Z,17.43
2019-04-29T04:28:29.507Z,13.63
2019-04-29T04:29:36.235Z,17.70
2019-04-29T04:30:43.299Z,20.67
2019-04-29T04:31:50.396Z,22.73
2019-04-29T04:32:57.468Z,12.40
2019-04-29T04:34:04.572Z,13.27
2019-04-29T04:35:11.858Z,16.50
2019-04-29T04:36:18.630Z,23.60
2019-04-29T04:37:25.456Z,24.30
2019-04-29T04:38:32.332Z,18.30
2019-04-29T04:39:40.978Z,21.30
2019-04-29T04:40:58.018Z,23.83
2019-04-29T04:42:04.728Z,16.70
2019-04-29T04:43:11.620Z,26.80
2019-04-29T04:44:18.431Z,18.93
2019-04-29T04:45:25.402Z,10.73
2019-04-29T04:46:32.517Z,22.83
2019-04-29T04:47:39.409Z,25.60
2019-04-29T04:48:46.512Z,22.83
2019-04-29T04:49:53.745Z,33.47
2019-04-29T04:51:00.479Z,19.67
2019-04-29T04:52:07.251Z,25.50
2019-04-29T04:53:14.022Z,15.90
2019-04-29T04:54:20.841Z,20.03
2019-04-29T04:55:30.658Z,20.60
2019-04-29T04:56:37.416Z,24.53
2019-04-29T04:57:44.329Z,22.10
2019-04-29T04:58:51.068Z,18.10
2019-04-29T04:59:57.947Z,17.03
2019-04-29T05:02:25.912Z,24.50
2019-04-29T05:03:32.982Z,20.70
2019-04-29T05:04:40.142Z,17.63
2019-04-29T05:05:47.012Z,20.07
2019-04-29T05:06:54.082Z,20.20
2019-04-29T05:08:01.571Z,15.40
2019-04-29T05:09:08.958Z,10.37
2019-04-29T05:10:16.339Z,15.00
2019-04-29T05:11:23.398Z,11.77
2019-04-29T05:12:30.215Z,13.73
2019-04-29T05:13:37.674Z,11.60
2019-04-29T05:14:44.734Z,12.37
2019-04-29T05:15:51.837Z,10.50
2019-04-29T05:16:58.585Z,15.37
2019-04-29T05:18:05.303Z,13.20
2019-04-29T05:19:12.064Z,29.37
2019-04-29T05:20:18.870Z,37.70
2019-04-29T05:21:25.669Z,12.20
2019-04-29T05:22:32.542Z,12.97
2019-04-29T05:23:41.738Z,14.10
2019-04-29T05:24:48.655Z,11.10
2019-04-29T05:25:56.161Z,14.40
2019-04-29T05:27:02.879Z,14.13
2019-04-29T05:28:09.922Z,15.73
2019-04-29T05:29:16.706Z,14.40
2019-04-29T05:30:23.913Z,17.30
2019-04-29T05:31:31.239Z,11.90
2019-04-29T05:32:38.347Z,13.40
2019-04-29T05:33:45.054Z,12.53
2019-04-29T05:34:55.020Z,14.50
2019-04-29T05:36:19.555Z,12.50
2019-04-29T05:37:32.528Z,12.60
2019-04-29T05:38:52.301Z,16.03
2019-04-29T05:39:59.150Z,16.60
2019-04-29T05:41:06.126Z,14.00
2019-04-29T05:42:16.208Z,15.10
2019-04-29T05:43:33.460Z,18.93
2019-04-29T05:44:59.658Z,17.77
2019-04-29T05:46:25.731Z,16.60
2019-04-29T05:47:36.788Z,17.73
2019-04-29T05:48:43.942Z,16.10
2019-04-29T05:50:11.764Z,18.53
2019-04-29T05:51:47.962Z,20.00
2019-04-29T05:53:25.737Z,18.00
2019-04-29T05:54:33.581Z,18.00
2019-04-29T05:55:40.697Z,20.07
2019-04-29T05:56:47.611Z,18.53
2019-04-29T05:58:02.933Z,21.30
2019-04-29T05:59:08.481Z,22.97
2019-04-29T06:00:18.890Z,15.87
2019-04-29T06:01:26.180Z,19.63
2019-04-29T06:02:36.320Z,15.27
2019-04-29T06:03:44.192Z,19.07
2019-04-29T06:04:52.389Z,14.40
2019-04-29T06:05:58.989Z,18.17
2019-04-29T06:07:05.887Z,24.10
2019-04-29T06:08:12.651Z,16.90
2019-04-29T06:09:19.383Z,17.90
2019-04-29T06:10:26.166Z,18.73
2019-04-29T06:11:33.278Z,16.30
2019-04-29T06:12:40.202Z,19.90
2019-04-29T06:13:47.304Z,19.27
2019-04-29T06:14:54.386Z,19.50
2019-04-29T06:16:01.235Z,20.87
2019-04-29T06:17:07.975Z,17.63
2019-04-29T06:18:17.696Z,16.23
2019-04-29T06:19:23.558Z,18.70
2019-04-29T06:20:30.363Z,19.17
2019-04-29T06:21:37.089Z,25.10
2019-04-29T06:22:43.843Z,22.03
2019-04-29T06:23:50.602Z,18.63
2019-04-29T06:24:57.349Z,19.40
2019-04-29T06:26:04.081Z,23.10
2019-04-29T06:27:10.818Z,17.97
2019-04-29T06:28:21.586Z,21.87
2019-04-29T06:29:26.922Z,23.13
2019-04-29T06:30:36.860Z,22.60
2019-04-29T06:31:42.469Z,21.33
2019-04-29T06:32:49.535Z,18.80
2019-04-29T06:33:56.301Z,19.20
2019-04-29T06:35:03.195Z,25.10
2019-04-29T06:36:10.403Z,19.20
2019-04-29T06:37:17.684Z,21.90
2019-04-29T06:38:24.919Z,25.30
2019-04-29T06:39:32.045Z,26.87
2019-04-29T06:40:38.830Z,19.23
2019-04-29T06:41:46.974Z,22.90
2019-04-29T06:42:55.176Z,17.80
2019-04-29T06:44:06.696Z,16.10
2019-04-29T06:45:11.036Z,25.10
2019-04-29T06:46:18.280Z,24.20
2019-04-29T06:47:25.384Z,25.70
2019-04-29T06:48:32.464Z,20.27
2019-04-29T06:49:39.256Z,20.87
2019-04-29T06:50:49.563Z,21.70
2019-04-29T06:51:55.233Z,21.27
2019-04-29T06:53:01.988Z,21.57
2019-04-29T06:54:09.108Z,19.90
2019-04-29T06:55:15.970Z,17.20
2019-04-29T06:56:23.137Z,14.73
2019-04-29T06:57:30.630Z,15.47
2019-04-29T06:58:38.438Z,22.70
2019-04-29T06:59:47.518Z,19.00
2019-04-29T07:00:55.971Z,16.13
2019-04-29T07:02:02.500Z,24.53
2019-04-29T07:03:09.228Z,15.97
2019-04-29T07:04:15.986Z,15.77
2019-04-29T07:05:23.043Z,14.40
2019-04-29T07:06:30.219Z,16.00
2019-04-29T07:07:36.992Z,19.57
2019-04-29T07:08:43.717Z,18.83
2019-04-29T07:09:50.445Z,16.47
2019-04-29T07:11:01.098Z,21.43
2019-04-29T07:12:08.091Z,16.80
2019-04-29T07:13:17.966Z,16.23
2019-04-29T07:14:24.148Z,20.67
2019-04-29T07:15:30.908Z,15.13
2019-04-29T07:16:37.639Z,15.53
2019-04-29T07:17:44.735Z,19.90
2019-04-29T07:18:53.790Z,15.83
2019-04-29T07:20:02.084Z,15.00
2019-04-29T07:21:11.864Z,15.37
2019-04-29T07:22:20.768Z,12.93
2019-04-29T07:23:25.696Z,14.50
2019-04-29T07:24:32.470Z,12.57
2019-04-29T07:25:39.567Z,15.23
2019-04-29T07:26:46.317Z,10.77
2019-04-29T07:27:53.068Z,12.80
2019-04-29T07:28:59.950Z,9.53
2019-04-29T07:30:08.377Z,11.40
2019-04-29T07:31:15.575Z,14.90
2019-04-29T07:32:23.102Z,11.97
2019-04-29T07:33:29.887Z,11.70
2019-04-29T07:34:39.494Z,15.20
2019-04-29T07:35:48.049Z,10.53
2019-04-29T07:36:57.712Z,9.10
2019-04-29T07:38:04.416Z,9.30
2019-04-29T07:39:11.257Z,6.20
2019-04-29T07:40:21.087Z,5.40
2019-04-29T07:41:28.171Z,5.67
2019-04-29T07:42:35.457Z,6.17
2019-04-29T07:43:43.031Z,5.90
2019-04-29T07:45:08.784Z,5.63
2019-04-29T07:46:30.399Z,6.90
2019-04-29T07:47:37.892Z,7.10
2019-04-29T07:48:45.054Z,6.73
2019-04-29T07:49:53.029Z,12.33
2019-04-29T07:51:04.228Z,6.97
2019-04-29T07:52:09.826Z,7.30
2019-04-29T07:53:21.921Z,10.13
2019-04-29T07:54:25.710Z,12.37
2019-04-29T07:55:32.636Z,7.13
2019-04-29T07:56:42.277Z,7.97
2019-04-29T07:57:52.170Z,7.07
2019-04-29T07:58:58.849Z,6.70
2019-04-29T08:00:08.583Z,8.47
2019-04-29T08:01:15.442Z,9.50
2019-04-29T08:02:22.473Z,10.73
2019-04-29T08:03:29.224Z,10.87
2019-04-29T08:04:36.353Z,8.63
2019-04-29T08:05:43.767Z,10.07
2019-04-29T08:06:51.157Z,11.80
2019-04-29T08:07:59.719Z,13.23
2019-04-29T08:09:09.721Z,14.30
2019-04-29T08:10:23.560Z,9.67
2019-04-29T08:11:26.227Z,15.17
2019-04-29T08:12:35.610Z,15.80
2019-04-29T08:13:44.632Z,9.67
2019-04-29T08:14:53.401Z,11.37
2019-04-29T08:16:01.337Z,15.47
2019-04-29T08:17:08.143Z,13.23
2019-04-29T08:18:16.148Z,13.93
2019-04-29T08:19:24.719Z,11.90
2019-04-29T08:20:35.423Z,12.73
2019-04-29T08:21:40.919Z,11.47
2019-04-29T08:22:47.718Z,11.67
2019-04-29T08:23:54.659Z,11.33
2019-04-29T08:25:01.414Z,13.90
2019-04-29T08:26:08.179Z,9.27
2019-04-29T08:27:14.923Z,14.50
2019-04-29T08:28:22.092Z,10.57
2019-04-29T08:29:30.831Z,14.40
2019-04-29T08:30:41.879Z,8.83
2019-04-29T08:31:47.001Z,11.00
2019-04-29T08:32:54.182Z,11.70
2019-04-29T08:34:01.355Z,11.63
2019-04-29T08:35:08.472Z,9.47
2019-04-29T08:36:15.219Z,8.80
2019-04-29T08:37:24.864Z,12.33
2019-04-29T08:38:30.498Z,12.00
2019-04-29T08:39:37.588Z,11.60
2019-04-29T08:40:45.292Z,9.27
2019-04-29T08:41:53.279Z,13.27
2019-04-29T08:43:15.919Z,11.80
2019-04-29T08:44:54.728Z,7.30
2019-04-29T08:46:02.635Z,9.23
2019-04-29T08:47:17.030Z,7.67
2019-04-29T08:48:24.102Z,9.83
2019-04-29T08:49:31.207Z,8.63
2019-04-29T08:50:37.929Z,8.53
2019-04-29T08:51:44.655Z,8.50
2019-04-29T08:52:51.410Z,5.00
2019-04-29T08:53:58.276Z,4.40
2019-04-29T08:55:05.869Z,4.93
2019-04-29T08:56:12.999Z,3.93
2019-04-29T08:57:19.722Z,3.43
2019-04-29T08:58:26.560Z,6.50
2019-04-29T08:59:33.917Z,6.23
2019-04-29T09:00:41.090Z,4.00
2019-04-29T09:01:48.311Z,4.63
2019-04-29T09:02:55.089Z,3.43
2019-04-29T09:04:02.124Z,9.63
2019-04-29T09:05:11.285Z,4.00
2019-04-29T09:06:17.967Z,3.80
2019-04-29T09:07:25.292Z,4.50
2019-04-29T09:08:33.004Z,4.40
2019-04-29T09:09:40.460Z,4.17
2019-04-29T09:10:47.868Z,6.00
2019-04-29T09:11:54.663Z,4.60
2019-04-29T09:13:01.800Z,3.37
2019-04-29T09:14:08.545Z,3.53
2019-04-29T09:15:36.357Z,6.33
2019-04-29T09:16:43.096Z,11.10
2019-04-29T09:17:55.568Z,5.10
2019-04-29T09:19:03.334Z,3.77
2019-04-29T09:20:10.889Z,5.67
2019-04-29T09:21:18.099Z,4.60
2019-04-29T09:22:27.129Z,4.03
2019-04-29T09:23:34.855Z,3.53
2019-04-29T09:25:00.481Z,3.67
2019-04-29T09:26:41.565Z,3.73
2019-04-29T09:27:49.392Z,5.23
2019-04-29T09:28:59.748Z,3.70
2019-04-29T09:30:05.166Z,4.93
2019-04-29T09:31:11.901Z,4.50
2019-04-29T09:32:19.056Z,4.00
2019-04-29T09:33:25.859Z,4.13
2019-04-29T09:34:32.968Z,3.87
2019-04-29T09:35:40.585Z,4.07
2019-04-29T09:36:49.707Z,3.60
2019-04-29T09:37:58.456Z,4.43
2019-04-29T09:39:06.500Z,2.80
2019-04-29T09:40:16.507Z,3.43
2019-04-29T09:41:34.968Z,12.13
2019-04-29T09:43:14.847Z,6.67
2019-04-29T09:44:31.348Z,5.37
2019-04-29T09:45:43.280Z,3.77
2019-04-29T09:46:50.081Z,3.60
2019-04-29T09:47:57.092Z,4.23
2019-04-29T09:49:03.918Z,4.13
2019-04-29T09:50:11.397Z,5.40
2019-04-29T09:51:22.182Z,7.40
2019-04-29T09:52:26.621Z,3.37
2019-04-29T09:53:33.425Z,5.13
2019-04-29T09:54:40.814Z,4.03
2019-04-29T09:55:47.553Z,4.50
2019-04-29T09:56:54.277Z,3.67
2019-04-29T09:58:01.539Z,3.70
2019-04-29T09:59:28.572Z,6.60
2019-04-29T10:00:51.646Z,4.07
2019-04-29T10:02:18.180Z,4.77
2019-04-29T10:03:58.042Z,6.17
2019-04-29T10:05:23.858Z,8.80
2019-04-29T10:06:33.422Z,3.57
2019-04-29T10:07:40.505Z,4.50
2019-04-29T10:08:48.048Z,4.33
2019-04-29T10:09:57.393Z,4.70
2019-04-29T10:11:03.661Z,3.00
2019-04-29T10:12:11.274Z,2.73
2019-04-29T10:13:18.749Z,4.37
2019-04-29T10:14:25.554Z,5.40
2019-04-29T10:15:41.027Z,3.80
2019-04-29T10:16:57.254Z,5.13
2019-04-29T10:18:11.211Z,4.83
2019-04-29T10:19:42.996Z,10.33
2019-04-29T10:20:56.706Z,3.80
2019-04-29T10:22:04.092Z,4.80
2019-04-29T10:23:10.847Z,3.87
2019-04-29T10:24:18.762Z,4.20
2019-04-29T10:25:25.643Z,4.40
2019-04-29T10:26:32.371Z,3.53
2019-04-29T10:27:39.478Z,3.93
2019-04-29T10:29:00.037Z,7.17
2019-04-29T10:30:08.253Z,4.30
2019-04-29T10:31:15.308Z,6.50
2019-04-29T10:32:22.874Z,4.23
2019-04-29T10:33:30.124Z,6.27
2019-04-29T10:34:37.300Z,4.87
2019-04-29T10:35:45.088Z,6.27
2019-04-29T10:36:53.656Z,4.40
2019-04-29T10:38:02.803Z,3.73
2019-04-29T10:39:30.960Z,3.10
2019-04-29T10:40:56.476Z,3.30
2019-04-29T10:42:04.530Z,4.43
2019-04-29T10:43:29.404Z,2.93
2019-04-29T10:44:55.189Z,3.57
2019-04-29T10:46:27.262Z,4.53
2019-04-29T10:47:50.164Z,10.43
2019-04-29T10:49:07.861Z,3.40
2019-04-29T10:50:19.126Z,4.23
2019-04-29T10:51:28.636Z,3.07
2019-04-29T10:52:38.645Z,3.40
2019-04-29T10:53:46.722Z,5.57
2019-04-29T10:54:55.398Z,3.37
2019-04-29T10:56:05.667Z,7.17
2019-04-29T10:57:14.799Z,4.43
2019-04-29T10:58:22.033Z,3.17
2019-04-29T10:59:35.976Z,4.20
2019-04-29T11:01:39.672Z,3.10
2019-04-29T11:02:49.371Z,3.63
2019-04-29T11:03:55.819Z,3.97
2019-04-29T11:05:57.419Z,4.77
2019-04-29T11:06:51.682Z,6.40
2019-04-29T11:08:02.638Z,5.00
2019-04-29T11:09:28.978Z,5.00
2019-04-29T11:10:35.816Z,7.50
2019-04-29T11:11:43.551Z,3.90
2019-04-29T11:12:51.191Z,5.60
2019-04-29T11:14:01.523Z,7.97
2019-04-29T11:15:09.897Z,5.57
2019-04-29T11:16:16.599Z,5.70
2019-04-29T11:17:25.806Z,4.90
2019-04-29T11:18:32.910Z,3.60
2019-04-29T11:19:41.626Z,7.87
2019-04-29T11:20:48.935Z,4.43
2019-04-29T11:22:02.258Z,3.70
2019-04-29T11:23:26.102Z,5.13
2019-04-29T11:24:50.845Z,4.50
2019-04-29T11:26:34.933Z,5.67
2019-04-29T11:27:48.874Z,4.27
2019-04-29T11:28:56.794Z,7.50
2019-04-29T11:30:05.511Z,5.10
2019-04-29T11:31:14.025Z,4.73
2019-04-29T11:32:31.495Z,5.47
2019-04-29T11:33:45.631Z,8.90
2019-04-29T11:35:29.824Z,5.20
2019-04-29T11:36:38.991Z,5.67
2019-04-29T11:37:45.707Z,6.10
2019-04-29T11:38:52.816Z,6.10
2019-04-29T11:40:00.079Z,7.57
2019-04-29T11:41:07.020Z,4.90
2019-04-29T11:42:14.849Z,6.27
2019-04-29T11:43:22.537Z,7.53
2019-04-29T11:44:31.846Z,5.33
2019-04-29T11:45:40.321Z,6.83
2019-04-29T11:46:48.991Z,6.87
2019-04-29T11:47:55.880Z,6.50
2019-04-29T11:49:04.822Z,7.13
2019-04-29T11:50:20.843Z,6.03
2019-04-29T11:52:09.325Z,5.30
2019-04-29T11:53:04.261Z,9.13
2019-04-29T11:54:12.830Z,6.10
2019-04-29T11:55:20.261Z,6.17
2019-04-29T11:56:27.787Z,6.00
2019-04-29T11:57:47.246Z,7.10
2019-04-29T11:59:09.752Z,6.27
2019-04-29T12:00:42.230Z,6.67
2019-04-29T12:02:07.353Z,7.47
2019-04-29T12:03:18.968Z,5.43
2019-04-29T12:04:35.576Z,12.30
2019-04-29T12:05:46.296Z,7.33
2019-04-29T12:06:56.341Z,5.70
2019-04-29T12:08:05.064Z,6.77
2019-04-29T12:09:11.082Z,8.90
2019-04-29T12:10:17.857Z,11.93
2019-04-29T12:11:28.170Z,7.60
2019-04-29T12:12:33.351Z,5.93
2019-04-29T12:13:47.014Z,8.73
2019-04-29T12:15:13.753Z,8.23
2019-04-29T12:16:31.795Z,6.73
2019-04-29T12:17:56.448Z,7.03
2019-04-29T12:19:11.522Z,8.93
2019-04-29T12:20:24.101Z,7.77
2019-04-29T12:21:33.068Z,8.60
2019-04-29T12:22:48.147Z,8.80
2019-04-29T12:23:52.151Z,6.73
2019-04-29T12:24:58.049Z,5.83
2019-04-29T12:26:04.995Z,7.50
2019-04-29T12:27:14.874Z,10.73
2019-04-29T12:28:21.060Z,6.13
2019-04-29T12:29:27.803Z,6.63
2019-04-29T12:30:38.481Z,7.77
2019-04-29T12:32:03.097Z,7.90
2019-04-29T12:33:21.515Z,9.43
2019-04-29T12:34:50.322Z,6.90
2019-04-29T12:36:03.191Z,8.17
2019-04-29T12:37:20.325Z,9.57
2019-04-29T12:38:52.275Z,12.93
2019-04-29T12:40:19.997Z,15.83
2019-04-29T12:42:04.465Z,14.10
2019-04-29T12:43:32.320Z,7.57
2019-04-29T12:45:03.942Z,8.07
2019-04-29T12:46:18.784Z,10.23
2019-04-29T12:47:33.808Z,8.90
2019-04-29T12:48:41.038Z,8.10
2019-04-29T12:49:48.222Z,10.27
2019-04-29T12:50:57.618Z,12.93
2019-04-29T12:52:03.721Z,8.93
2019-04-29T12:53:10.788Z,8.83
2019-04-29T12:54:18.803Z,9.90
2019-04-29T12:55:44.329Z,9.70
2019-04-29T12:56:43.163Z,8.50
2019-04-29T12:57:51.497Z,11.60
2019-04-29T12:59:00.137Z,8.40
2019-04-29T13:00:09.827Z,9.13
2019-04-29T13:01:50.382Z,9.57
2019-04-29T13:03:13.019Z,9.33
2019-04-29T13:04:51.540Z,8.53
2019-04-29T13:06:09.867Z,13.13
2019-04-29T13:07:38.978Z,8.60
2019-04-29T13:08:48.286Z,7.10
2019-04-29T13:09:57.195Z,10.17
2019-04-29T13:11:05.632Z,8.57
2019-04-29T13:12:19.398Z,11.87
2019-04-29T13:13:22.031Z,10.77
2019-04-29T13:14:33.240Z,8.87
2019-04-29T13:15:56.645Z,12.30
2019-04-29T13:17:14.745Z,12.50
2019-04-29T13:18:29.308Z,10.00
2019-04-29T13:19:46.087Z,11.90
2019-04-29T13:20:53.689Z,12.23
2019-04-29T13:22:01.137Z,12.00
2019-04-29T13:23:17.754Z,12.57
2019-04-29T13:24:24.137Z,13.07
2019-04-29T13:25:26.790Z,11.77
2019-04-29T13:26:37.348Z,15.57
2019-04-29T13:27:42.327Z,14.90
2019-04-29T13:29:00.358Z,14.43
2019-04-29T13:29:58.617Z,13.80
2019-04-29T13:31:05.852Z,13.60
2019-04-29T13:32:13.611Z,15.00
2019-04-29T13:33:20.336Z,11.07
2019-04-29T13:34:35.207Z,16.30
2019-04-29T13:35:48.285Z,14.93
2019-04-29T13:37:06.173Z,19.53
2019-04-29T13:37:59.132Z,14.00
2019-04-29T13:39:09.488Z,12.67
2019-04-29T13:40:17.240Z,13.20
2019-04-29T13:41:25.959Z,16.30
2019-04-29T13:42:32.683Z,11.00
2019-04-29T13:43:40.187Z,16.63
2019-04-29T13:45:05.107Z,13.90
2019-04-29T13:46:14.184Z,15.63
2019-04-29T13:47:35.637Z,11.90
2019-04-29T13:49:12.428Z,15.70
2019-04-29T13:50:23.573Z,12.93
2019-04-29T13:51:35.913Z,14.83
2019-04-29T13:52:35.656Z,13.57
2019-04-29T13:53:42.404Z,13.90
2019-04-29T13:54:49.186Z,13.47
2019-04-29T13:56:10.987Z,14.27
2019-04-29T13:57:08.939Z,12.30
2019-04-29T13:58:13.919Z,12.20
2019-04-29T13:59:28.952Z,14.70
2019-04-29T14:00:45.446Z,15.07
2019-04-29T14:02:05.709Z,13.07
2019-04-29T14:03:14.083Z,14.53
2019-04-29T14:04:26.228Z,13.20
2019-04-29T14:05:36.721Z,15.70
2019-04-29T14:06:56.171Z,17.27
2019-04-29T14:07:54.331Z,17.00
2019-04-29T14:09:03.862Z,15.33
2019-04-29T14:10:14.798Z,17.80
2019-04-29T14:11:21.997Z,14.50
2019-04-29T14:12:48.261Z,16.63
2019-04-29T14:13:38.910Z,15.20
2019-04-29T14:14:45.086Z,12.63
2019-04-29T14:15:52.431Z,12.93
2019-04-29T14:17:17.087Z,13.23
2019-04-29T14:18:11.578Z,15.63
2019-04-29T14:19:20.476Z,12.30
2019-04-29T14:20:26.577Z,12.70
2019-04-29T14:21:33.764Z,16.40
2019-04-29T14:22:40.935Z,17.90
2019-04-29T14:23:48.418Z,10.47
2019-04-29T14:24:55.428Z,13.23
2019-04-29T14:26:02.173Z,9.40
2019-04-29T14:27:23.682Z,15.07
2019-04-29T14:28:18.249Z,13.07
2019-04-29T14:29:28.418Z,17.53
2019-04-29T14:30:38.953Z,15.00
2019-04-29T14:31:42.298Z,18.67
2019-04-29T14:32:51.870Z,12.13
2019-04-29T14:34:03.962Z,18.07
2019-04-29T14:35:17.955Z,17.00
2019-04-29T14:36:26.326Z,17.43
2019-04-29T14:37:33.534Z,12.63
2019-04-29T14:38:41.109Z,11.27
2019-04-29T14:39:48.922Z,16.97
2019-04-29T14:40:55.750Z,17.10
2019-04-29T14:42:07.621Z,19.50
2019-04-29T14:43:28.590Z,16.33
2019-04-29T14:44:42.054Z,19.53
2019-04-29T14:46:23.299Z,14.33
2019-04-29T14:47:48.392Z,14.40
2019-04-29T14:49:06.239Z,16.80
2019-04-29T14:50:15.539Z,13.80
2019-04-29T14:51:22.421Z,16.53
2019-04-29T14:52:29.337Z,18.90
2019-04-29T14:53:36.614Z,17.90
2019-04-29T14:54:43.703Z,17.50
2019-04-29T14:55:50.592Z,21.97
2019-04-29T14:56:57.835Z,20.20
2019-04-29T14:58:05.008Z,15.63
2019-04-29T14:59:11.849Z,22.27
2019-04-29T15:00:30.016Z,16.40
2019-04-29T15:01:46.140Z,17.63
2019-04-29T15:02:55.910Z,21.13
2019-04-29T15:04:17.983Z,20.17
2019-04-29T15:05:16.572Z,20.40
2019-04-29T15:06:23.661Z,18.53
2019-04-29T15:07:36.343Z,16.17
2019-04-29T15:08:43.348Z,19.00
2019-04-29T15:09:58.096Z,20.40
2019-04-29T15:11:08.977Z,18.93
2019-04-29T15:12:21.728Z,19.70
2019-04-29T15:13:29.378Z,18.63
2019-04-29T15:14:47.720Z,18.33
2019-04-29T15:16:20.546Z,24.17
2019-04-29T15:17:40.524Z,16.33
2019-04-29T15:18:53.074Z,16.63
2019-04-29T15:20:08.531Z,22.30
2019-04-29T15:21:34.535Z,20.63